Time;durP1;ratioP1;P1;durP2;ratioP2;P2;SDS_P1;SDS_P2;PMS_P1;PMS_P2;Temp;Humidity;BMP_temperature;BMP_pressure;BME280_temperature;BME280_humidity;BME280_pressure;Samples;Min_cycle;Max_cycle;Signal;HPM_P1;HPM_P2
2022/07/03 00:00:41;;;;;;;0.73;0.70;;;;;;;;;;5046913;28;20509;-62
2022/07/03 00:03:07;;;;;;;0.70;0.70;;;;;;;;;;5024777;28;20401;-60
2022/07/03 00:05:33;;;;;;;0.55;0.55;;;;;;;;;;5047816;28;20072;-61
2022/07/03 00:07:59;;;;;;;1.05;0.75;;;;;;;;;;5060533;28;20048;-61
2022/07/03 00:10:25;;;;;;;1.10;0.85;;;;;;;;;;5058033;28;20133;-62
2022/07/03 00:12:51;;;;;;;0.77;0.73;;;;;;;;;;5072607;28;20143;-62
2022/07/03 00:15:17;;;;;;;1.02;0.60;;;;;;;;;;5071971;28;20103;-62
2022/07/03 00:17:43;;;;;;;0.70;0.70;;;;;;;;;;5072393;28;20041;-62
2022/07/03 00:20:10;;;;;;;0.60;0.60;;;;;;;;;;5062059;28;20055;-61
2022/07/03 00:22:37;;;;;;;1.13;0.70;;;;;;;;;;5037866;28;20507;-61
2022/07/03 00:25:05;;;;;;;1.50;0.65;;;;;;;;;;5032945;28;20057;-61
2022/07/03 00:27:33;;;;;;;0.80;0.80;;;;;;;;;;5050814;28;20071;-62
2022/07/03 00:29:59;;;;;;;1.73;0.98;;;;;;;;;;5051138;28;20556;-62
2022/07/03 00:32:26;;;;;;;1.08;0.70;;;;;;;;;;5051642;28;20075;-62
2022/07/03 00:34:53;;;;;;;0.75;0.75;;;;;;;;;;5047093;28;20525;-61
2022/07/03 00:37:19;;;;;;;0.57;0.57;;;;;;;;;;5030552;28;20061;-61
2022/07/03 00:39:45;;;;;;;0.80;0.70;;;;;;;;;;5034019;28;20053;-62
2022/07/03 00:42:12;;;;;;;0.93;0.80;;;;;;;;;;5047718;28;20056;-61
2022/07/03 00:44:44;;;;;;;0.70;0.70;;;;;;;;;;5031977;28;20445;-62
2022/07/03 00:47:11;;;;;;;0.73;0.73;;;;;;;;;;5031442;28;20085;-60
2022/07/03 00:49:38;;;;;;;1.85;0.77;;;;;;;;;;5031078;28;20107;-62
2022/07/03 00:52:05;;;;;;;1.17;0.73;;;;;;;;;;5030454;28;20085;-62
2022/07/03 00:54:35;;;;;;;0.75;0.70;;;;;;;;;;5031706;28;20045;-62
2022/07/03 00:57:02;;;;;;;0.70;0.70;;;;;;;;;;5031533;28;20081;-61
2022/07/03 00:59:28;;;;;;;1.13;0.82;;;;;;;;;;5031206;28;20471;-61
2022/07/03 01:02:00;;;;;;;1.40;0.68;;;;;;;;;;5032533;28;20064;-61
2022/07/03 01:04:36;;;;;;;0.70;0.70;;;;;;;;;;5031137;28;20049;-62
2022/07/03 01:07:06;;;;;;;1.45;0.77;;;;;;;;;;5046983;28;20045;-62
2022/07/03 01:09:42;;;;;;;0.82;0.70;;;;;;;;;;5051321;28;20301;-62
2022/07/03 01:12:14;;;;;;;0.90;0.90;;;;;;;;;;5051722;28;20054;-61
2022/07/03 01:15:06;;;;;;;0.60;0.60;;;;;;;;;;5051811;28;20053;-62
2022/07/03 01:17:35;;;;;;;0.80;0.80;;;;;;;;;;5034800;28;20045;-62
2022/07/03 01:20:04;;;;;;;1.13;0.70;;;;;;;;;;5050834;28;20057;-62
2022/07/03 01:22:33;;;;;;;1.30;0.80;;;;;;;;;;5049983;28;20099;-62
2022/07/03 01:25:10;;;;;;;1.27;0.85;;;;;;;;;;5041385;28;20494;-62
2022/07/03 01:27:48;;;;;;;0.80;0.60;;;;;;;;;;5030922;28;20045;-62
2022/07/03 01:30:14;;;;;;;0.85;0.70;;;;;;;;;;5050327;28;20115;-60
2022/07/03 01:32:42;;;;;;;0.88;0.80;;;;;;;;;;5050902;28;20048;-62
2022/07/03 01:35:09;;;;;;;0.70;0.70;;;;;;;;;;5050502;28;20053;-62
2022/07/03 01:37:35;;;;;;;0.90;0.90;;;;;;;;;;5049635;28;20055;-62
2022/07/03 01:40:03;;;;;;;1.20;0.60;;;;;;;;;;5051107;28;20107;-62
2022/07/03 01:42:30;;;;;;;1.02;1.00;;;;;;;;;;5050573;28;20121;-61
2022/07/03 01:44:58;;;;;;;1.95;0.70;;;;;;;;;;5051010;28;20052;-62
2022/07/03 01:47:25;;;;;;;1.50;0.90;;;;;;;;;;5049924;28;20566;-62
2022/07/03 01:49:52;;;;;;;0.77;0.77;;;;;;;;;;5047029;28;20079;-61
2022/07/03 01:52:19;;;;;;;0.70;0.70;;;;;;;;;;5029485;28;20047;-60
2022/07/03 01:54:46;;;;;;;1.63;1.20;;;;;;;;;;5048828;28;20395;-62
2022/07/03 01:57:12;;;;;;;1.20;0.70;;;;;;;;;;5050840;28;20048;-62
2022/07/03 01:59:38;;;;;;;1.45;1.27;;;;;;;;;;5050300;28;20045;-62
2022/07/03 02:02:07;;;;;;;0.85;0.80;;;;;;;;;;5031321;28;20439;-62
2022/07/03 02:04:57;;;;;;;0.82;0.82;;;;;;;;;;5030488;28;20069;-62
2022/07/03 02:07:32;;;;;;;0.85;0.80;;;;;;;;;;5018244;28;20053;-61
2022/07/03 02:09:58;;;;;;;1.33;0.90;;;;;;;;;;5031036;28;20049;-61
2022/07/03 02:12:27;;;;;;;0.73;0.73;;;;;;;;;;5046995;28;20508;-61
2022/07/03 02:15:03;;;;;;;0.63;0.63;;;;;;;;;;5050651;28;20049;-62
2022/07/03 02:17:30;;;;;;;0.80;0.80;;;;;;;;;;5043125;28;20041;-61
2022/07/03 02:20:07;;;;;;;1.95;0.70;;;;;;;;;;5030065;28;20045;-62
2022/07/03 02:22:39;;;;;;;0.70;0.70;;;;;;;;;;5033479;28;20052;-61
2022/07/03 02:25:06;;;;;;;1.40;0.88;;;;;;;;;;5050654;28;20045;-62
2022/07/03 02:27:39;;;;;;;1.55;0.82;;;;;;;;;;5049817;28;20053;-62
2022/07/03 02:30:06;;;;;;;0.70;0.70;;;;;;;;;;5050541;28;20052;-62
2022/07/03 02:32:48;;;;;;;1.23;0.95;;;;;;;;;;5043096;28;20050;-62
2022/07/03 02:35:34;;;;;;;0.73;0.73;;;;;;;;;;5029579;28;20049;-62
2022/07/03 02:38:00;;;;;;;0.80;0.80;;;;;;;;;;5047836;28;20045;-62
2022/07/03 02:40:28;;;;;;;1.02;0.77;;;;;;;;;;5033768;28;20045;-62
2022/07/03 02:42:54;;;;;;;1.58;0.70;;;;;;;;;;5045126;28;20048;-62
2022/07/03 02:45:22;;;;;;;0.98;0.80;;;;;;;;;;5043651;28;20055;-60
2022/07/03 02:47:51;;;;;;;0.60;0.60;;;;;;;;;;5030082;28;20037;-61
2022/07/03 02:50:21;;;;;;;0.70;0.70;;;;;;;;;;5029754;28;20146;-62
2022/07/03 02:52:52;;;;;;;1.20;1.00;;;;;;;;;;5029411;28;20486;-62
2022/07/03 02:55:37;;;;;;;0.80;0.80;;;;;;;;;;5030537;28;20059;-62
2022/07/03 02:58:42;;;;;;;0.80;0.80;;;;;;;;;;5030404;28;20057;-61
2022/07/03 03:01:10;;;;;;;2.72;1.00;;;;;;;;;;4999305;28;20054;-62
2022/07/03 03:03:37;;;;;;;1.27;0.70;;;;;;;;;;5007364;28;20119;-62
2022/07/03 03:06:14;;;;;;;0.70;0.70;;;;;;;;;;5013013;28;20666;-62
2022/07/03 03:08:43;;;;;;;0.73;0.70;;;;;;;;;;5034514;28;20059;-61
2022/07/03 03:11:14;;;;;;;0.95;0.60;;;;;;;;;;5050090;28;20375;-61
2022/07/03 03:13:42;;;;;;;3.13;0.80;;;;;;;;;;5049561;28;20095;-62
2022/07/03 03:16:10;;;;;;;0.73;0.73;;;;;;;;;;5038827;28;20490;-61
2022/07/03 03:18:37;;;;;;;1.55;0.80;;;;;;;;;;5033072;28;20073;-61
2022/07/03 03:21:04;;;;;;;1.10;0.90;;;;;;;;;;5050215;28;20049;-62
2022/07/03 03:23:50;;;;;;;0.98;0.88;;;;;;;;;;5033388;28;20041;-62
2022/07/03 03:26:21;;;;;;;0.70;0.70;;;;;;;;;;5033748;28;20065;-61
2022/07/03 03:28:47;;;;;;;0.95;0.88;;;;;;;;;;5049716;28;20045;-61
2022/07/03 03:31:13;;;;;;;0.80;0.80;;;;;;;;;;5053268;28;20048;-62
2022/07/03 03:33:40;;;;;;;0.60;0.60;;;;;;;;;;5052973;28;20505;-62
2022/07/03 03:36:08;;;;;;;1.65;0.75;;;;;;;;;;5051362;28;20111;-61
2022/07/03 03:38:34;;;;;;;0.68;0.68;;;;;;;;;;5033387;28;20102;-62
2022/07/03 03:41:01;;;;;;;0.60;0.60;;;;;;;;;;5037575;28;20052;-61
2022/07/03 03:43:27;;;;;;;0.93;0.60;;;;;;;;;;5046381;28;20054;-60
2022/07/03 03:45:53;;;;;;;0.80;0.80;;;;;;;;;;5053774;28;20045;-60
2022/07/03 03:48:19;;;;;;;0.73;0.70;;;;;;;;;;5053084;28;20045;-62
2022/07/03 03:50:45;;;;;;;1.67;0.80;;;;;;;;;;5044319;28;20053;-61
2022/07/03 03:53:12;;;;;;;0.90;0.90;;;;;;;;;;5033272;28;20049;-62
2022/07/03 03:55:52;;;;;;;0.90;0.82;;;;;;;;;;5052647;28;20057;-61
2022/07/03 03:58:18;;;;;;;1.35;0.82;;;;;;;;;;5046987;28;20037;-61
2022/07/03 04:00:44;;;;;;;0.73;0.73;;;;;;;;;;5050413;28;20127;-61
2022/07/03 04:03:10;;;;;;;1.25;0.88;;;;;;;;;;5041759;28;20088;-62
2022/07/03 04:05:36;;;;;;;1.40;0.80;;;;;;;;;;5031651;28;20057;-61
2022/07/03 04:08:02;;;;;;;0.70;0.70;;;;;;;;;;5032075;28;20037;-62
2022/07/03 04:10:28;;;;;;;0.75;0.75;;;;;;;;;;5041902;28;20167;-61
2022/07/03 04:12:54;;;;;;;0.95;0.80;;;;;;;;;;5032862;28;20049;-62
2022/07/03 04:15:20;;;;;;;0.80;0.80;;;;;;;;;;5032721;28;20085;-61
2022/07/03 04:17:50;;;;;;;1.00;0.80;;;;;;;;;;5031952;28;20128;-61
2022/07/03 04:20:17;;;;;;;1.20;0.80;;;;;;;;;;5031975;28;20053;-61
2022/07/03 04:22:43;;;;;;;1.00;0.90;;;;;;;;;;5035548;28;20049;-61
2022/07/03 04:25:09;;;;;;;1.90;1.00;;;;;;;;;;5046308;28;20056;-62
2022/07/03 04:27:35;;;;;;;0.93;0.90;;;;;;;;;;5031833;28;20140;-61
2022/07/03 04:30:01;;;;;;;1.10;0.90;;;;;;;;;;5031610;28;20049;-61
2022/07/03 04:32:27;;;;;;;0.73;0.73;;;;;;;;;;5032193;28;20099;-62
2022/07/03 04:34:53;;;;;;;1.10;0.80;;;;;;;;;;5046678;28;20049;-61
2022/07/03 04:37:19;;;;;;;0.80;0.80;;;;;;;;;;5051214;28;20092;-61
2022/07/03 04:39:45;;;;;;;0.57;0.57;;;;;;;;;;5051902;28;20063;-62
2022/07/03 04:42:11;;;;;;;1.98;1.52;;;;;;;;;;5052214;28;20136;-62
2022/07/03 04:44:37;;;;;;;0.82;0.82;;;;;;;;;;5035227;28;20046;-62
2022/07/03 04:47:03;;;;;;;2.05;0.75;;;;;;;;;;5042947;28;20498;-62
2022/07/03 04:49:30;;;;;;;0.77;0.52;;;;;;;;;;5052107;28;20049;-62
2022/07/03 04:51:56;;;;;;;1.23;0.80;;;;;;;;;;5049841;28;20494;-61
2022/07/03 04:54:22;;;;;;;0.68;0.68;;;;;;;;;;5051800;28;20552;-61
2022/07/03 04:56:48;;;;;;;1.70;0.98;;;;;;;;;;5051372;28;20078;-61
2022/07/03 04:59:14;;;;;;;0.90;0.90;;;;;;;;;;5051974;28;20497;-61
2022/07/03 05:01:40;;;;;;;0.80;0.80;;;;;;;;;;5050545;28;20045;-61
2022/07/03 05:04:06;;;;;;;1.02;0.75;;;;;;;;;;5063958;28;20044;-62
2022/07/03 05:06:32;;;;;;;0.70;0.70;;;;;;;;;;5069621;28;20045;-61
2022/07/03 05:08:58;;;;;;;1.00;0.90;;;;;;;;;;5071145;28;20047;-61
2022/07/03 05:11:24;;;;;;;1.00;0.90;;;;;;;;;;5054227;28;20056;-62
2022/07/03 05:13:51;;;;;;;0.90;0.90;;;;;;;;;;5036024;28;20059;-61
2022/07/03 05:16:17;;;;;;;1.10;1.00;;;;;;;;;;5031409;28;20053;-61
2022/07/03 05:18:43;;;;;;;0.90;0.90;;;;;;;;;;5013405;28;20099;-61
2022/07/03 05:21:09;;;;;;;0.70;0.70;;;;;;;;;;5029885;28;20049;-61
2022/07/03 05:23:35;;;;;;;1.13;0.90;;;;;;;;;;5031419;28;20097;-60
2022/07/03 05:26:01;;;;;;;2.53;1.10;;;;;;;;;;5031188;28;20049;-61
2022/07/03 05:28:27;;;;;;;1.10;0.80;;;;;;;;;;5031192;28;20655;-61
2022/07/03 05:30:53;;;;;;;0.80;0.80;;;;;;;;;;5030860;28;20388;-61
2022/07/03 05:33:19;;;;;;;1.05;0.90;;;;;;;;;;5013643;28;20465;-62
2022/07/03 05:35:45;;;;;;;1.02;1.00;;;;;;;;;;5039099;28;20070;-61
2022/07/03 05:38:13;;;;;;;1.15;1.05;;;;;;;;;;5050792;28;20049;-61
2022/07/03 05:40:39;;;;;;;0.75;0.70;;;;;;;;;;5049876;28;20060;-60
2022/07/03 05:43:05;;;;;;;1.17;1.00;;;;;;;;;;5049440;28;20053;-62
2022/07/03 05:45:31;;;;;;;1.35;0.90;;;;;;;;;;5046123;28;20052;-62
2022/07/03 05:47:57;;;;;;;2.60;0.90;;;;;;;;;;5030250;28;20285;-61
2022/07/03 05:50:23;;;;;;;1.40;0.82;;;;;;;;;;5030435;28;20442;-62
2022/07/03 05:52:49;;;;;;;1.20;0.90;;;;;;;;;;5029700;28;20755;-62
2022/07/03 05:55:15;;;;;;;0.80;0.75;;;;;;;;;;5030940;28;20612;-62
2022/07/03 05:57:41;;;;;;;1.10;0.82;;;;;;;;;;5045444;28;20454;-61
2022/07/03 06:00:07;;;;;;;0.88;0.88;;;;;;;;;;5021737;28;20532;-62
2022/07/03 06:02:34;;;;;;;0.88;0.80;;;;;;;;;;5050486;28;20052;-62
2022/07/03 06:05:00;;;;;;;0.80;0.80;;;;;;;;;;5049494;28;20071;-62
2022/07/03 06:07:26;;;;;;;0.80;0.80;;;;;;;;;;5049794;28;20095;-62
2022/07/03 06:09:52;;;;;;;0.68;0.68;;;;;;;;;;5049181;28;20048;-62
2022/07/03 06:12:18;;;;;;;1.20;0.80;;;;;;;;;;5050718;28;20136;-62
2022/07/03 06:14:44;;;;;;;1.02;0.85;;;;;;;;;;5044096;28;20099;-62
2022/07/03 06:17:10;;;;;;;0.98;0.98;;;;;;;;;;5030258;28;20045;-63
2022/07/03 06:19:36;;;;;;;0.90;0.80;;;;;;;;;;5046323;28;20045;-63
2022/07/03 06:22:02;;;;;;;0.80;0.80;;;;;;;;;;5028478;28;20131;-63
2022/07/03 06:24:28;;;;;;;2.47;0.98;;;;;;;;;;5044558;28;20076;-63
2022/07/03 06:26:54;;;;;;;1.58;0.90;;;;;;;;;;5045529;28;20053;-63
2022/07/03 06:29:21;;;;;;;0.90;0.90;;;;;;;;;;5046929;28;20041;-63
2022/07/03 06:31:47;;;;;;;1.15;0.93;;;;;;;;;;5049790;28;20231;-63
2022/07/03 06:34:13;;;;;;;1.65;1.10;;;;;;;;;;5046696;28;20049;-63
2022/07/03 06:36:39;;;;;;;1.00;0.90;;;;;;;;;;5042624;28;20056;-63
2022/07/03 06:39:05;;;;;;;0.73;0.73;;;;;;;;;;5050053;28;20061;-63
2022/07/03 06:41:31;;;;;;;0.70;0.70;;;;;;;;;;5032827;28;20091;-63
2022/07/03 06:43:57;;;;;;;0.80;0.70;;;;;;;;;;5049109;28;20052;-63
2022/07/03 06:46:23;;;;;;;0.68;0.68;;;;;;;;;;5047999;28;20485;-63
2022/07/03 06:48:49;;;;;;;0.95;0.90;;;;;;;;;;5044093;28;20111;-62
2022/07/03 06:51:15;;;;;;;1.17;0.93;;;;;;;;;;5029029;28;20053;-63
2022/07/03 06:53:41;;;;;;;1.00;0.98;;;;;;;;;;5031421;28;20045;-63
2022/07/03 06:56:07;;;;;;;0.70;0.70;;;;;;;;;;5047767;28;20132;-63
2022/07/03 06:58:33;;;;;;;0.80;0.80;;;;;;;;;;5069339;28;20482;-63
2022/07/03 07:00:59;;;;;;;1.02;0.88;;;;;;;;;;5053297;28;20040;-63
2022/07/03 07:03:25;;;;;;;0.60;0.60;;;;;;;;;;5053962;28;20138;-63
2022/07/03 07:05:52;;;;;;;1.00;0.80;;;;;;;;;;5039359;28;20049;-63
2022/07/03 07:08:18;;;;;;;0.60;0.60;;;;;;;;;;5033623;28;20049;-62
2022/07/03 07:10:44;;;;;;;0.85;0.80;;;;;;;;;;5037177;28;20129;-63
2022/07/03 07:13:10;;;;;;;0.80;0.80;;;;;;;;;;5041641;28;20106;-63
2022/07/03 07:15:36;;;;;;;0.70;0.70;;;;;;;;;;5053812;28;20071;-63
2022/07/03 07:18:02;;;;;;;1.08;0.70;;;;;;;;;;5053113;28;20041;-63
2022/07/03 07:20:28;;;;;;;0.60;0.60;;;;;;;;;;5053314;28;20053;-63
2022/07/03 07:22:54;;;;;;;0.82;0.80;;;;;;;;;;5052418;28;20114;-63
2022/07/03 07:25:20;;;;;;;1.92;0.90;;;;;;;;;;5035994;28;20055;-63
2022/07/03 07:27:47;;;;;;;0.95;0.80;;;;;;;;;;5053447;28;20052;-61
2022/07/03 07:30:13;;;;;;;0.85;0.70;;;;;;;;;;5052697;28;20546;-63
2022/07/03 07:32:40;;;;;;;0.75;0.75;;;;;;;;;;5040425;28;20045;-62
2022/07/03 07:35:06;;;;;;;0.70;0.70;;;;;;;;;;5032363;28;20053;-63
2022/07/03 07:37:32;;;;;;;0.88;0.85;;;;;;;;;;5033161;28;20054;-63
2022/07/03 07:39:58;;;;;;;0.60;0.60;;;;;;;;;;5035511;28;20064;-63
2022/07/03 07:42:24;;;;;;;0.98;0.70;;;;;;;;;;5033388;28;20046;-63
2022/07/03 07:44:51;;;;;;;0.70;0.70;;;;;;;;;;5032732;28;20053;-62
2022/07/03 07:47:17;;;;;;;1.23;0.80;;;;;;;;;;5033038;28;20490;-63
2022/07/03 07:49:43;;;;;;;1.10;0.80;;;;;;;;;;5033561;28;20045;-63
2022/07/03 07:52:09;;;;;;;0.70;0.70;;;;;;;;;;5033909;28;20181;-62
2022/07/03 07:54:35;;;;;;;0.80;0.77;;;;;;;;;;5047230;28;20659;-63
2022/07/03 07:57:01;;;;;;;1.70;0.90;;;;;;;;;;5048080;28;20057;-63
2022/07/03 07:59:27;;;;;;;0.80;0.80;;;;;;;;;;5039399;28;20114;-62
2022/07/03 08:07:23;;;;;;;0.70;0.70;;;;;;;;;;5041126;28;20048;-62
2022/07/03 08:09:49;;;;;;;0.60;0.60;;;;;;;;;;5030510;28;20052;-62
2022/07/03 08:12:15;;;;;;;0.70;0.70;;;;;;;;;;5039354;28;20137;-63
2022/07/03 08:14:41;;;;;;;1.40;0.90;;;;;;;;;;5030167;28;20044;-63
2022/07/03 08:17:07;;;;;;;0.80;0.75;;;;;;;;;;5040611;28;20497;-63
2022/07/03 08:19:33;;;;;;;0.75;0.63;;;;;;;;;;5038964;28;20048;-70
2022/07/03 08:21:59;;;;;;;1.30;0.90;;;;;;;;;;5028102;28;20089;-63
2022/07/03 08:24:25;;;;;;;1.67;0.85;;;;;;;;;;5039162;28;20056;-63
2022/07/03 08:26:52;;;;;;;2.38;0.90;;;;;;;;;;5035904;28;20049;-61
2022/07/03 08:29:18;;;;;;;1.52;0.90;;;;;;;;;;5032612;28;20521;-62
2022/07/03 08:31:44;;;;;;;1.00;0.90;;;;;;;;;;5030400;28;20045;-63
2022/07/03 08:34:12;;;;;;;0.98;0.70;;;;;;;;;;5030179;28;20056;-63
2022/07/03 08:36:40;;;;;;;0.70;0.70;;;;;;;;;;5031238;28;20053;-63
2022/07/03 08:39:06;;;;;;;4.13;0.85;;;;;;;;;;5033255;28;20183;-62
2022/07/03 08:41:33;;;;;;;0.70;0.70;;;;;;;;;;5032810;28;20402;-63
2022/07/03 08:44:00;;;;;;;0.73;0.73;;;;;;;;;;5035433;28;20045;-62
2022/07/03 08:46:26;;;;;;;1.05;0.95;;;;;;;;;;5032831;28;20067;-62
2022/07/03 08:48:54;;;;;;;0.63;0.63;;;;;;;;;;5030291;28;20095;-61
2022/07/03 08:51:21;;;;;;;1.20;0.85;;;;;;;;;;5034281;28;20048;-62
2022/07/03 08:53:48;;;;;;;0.80;0.80;;;;;;;;;;5030228;28;20055;-62
2022/07/03 08:56:14;;;;;;;1.25;0.80;;;;;;;;;;5029610;28;20996;-62
2022/07/03 08:58:41;;;;;;;1.75;0.82;;;;;;;;;;5030116;28;20052;-63
2022/07/03 09:01:07;;;;;;;0.60;0.60;;;;;;;;;;5034113;28;20047;-62
2022/07/03 09:03:33;;;;;;;0.80;0.80;;;;;;;;;;5040770;28;20168;-63
2022/07/03 09:05:59;;;;;;;1.60;0.60;;;;;;;;;;5037959;28;20048;-62
2022/07/03 09:08:28;;;;;;;1.30;0.93;;;;;;;;;;5021440;28;20124;-62
2022/07/03 09:10:54;;;;;;;0.73;0.60;;;;;;;;;;5029893;28;20131;-61
2022/07/03 09:13:20;;;;;;;1.05;0.73;;;;;;;;;;5029604;28;20122;-63
2022/07/03 09:15:46;;;;;;;0.70;0.70;;;;;;;;;;5030084;28;20132;-62
2022/07/03 09:18:13;;;;;;;0.93;0.70;;;;;;;;;;5034167;28;20049;-62
2022/07/03 09:20:40;;;;;;;1.13;1.00;;;;;;;;;;5029351;28;20133;-63
2022/07/03 09:23:17;;;;;;;2.03;0.90;;;;;;;;;;5028470;28;20067;-62
2022/07/03 09:25:56;;;;;;;0.75;0.60;;;;;;;;;;5032913;28;20049;-62
2022/07/03 09:28:23;;;;;;;0.73;0.70;;;;;;;;;;5031110;28;20521;-68
2022/07/03 09:30:56;;;;;;;2.58;0.77;;;;;;;;;;5029365;28;20457;-68
2022/07/03 09:33:22;;;;;;;2.15;0.90;;;;;;;;;;5056637;28;20040;-68
2022/07/03 09:35:53;;;;;;;1.83;0.98;;;;;;;;;;5043880;28;20049;-67
2022/07/03 09:38:19;;;;;;;0.93;0.77;;;;;;;;;;5057383;28;20549;-62
2022/07/03 09:40:52;;;;;;;1.05;0.90;;;;;;;;;;5058699;28;22202;-62
2022/07/03 09:43:38;;;;;;;1.10;0.77;;;;;;;;;;5029747;28;20121;-62
2022/07/03 09:46:05;;;;;;;0.70;0.70;;;;;;;;;;5027752;28;20041;-62
2022/07/03 09:48:33;;;;;;;0.80;0.80;;;;;;;;;;5029481;28;20045;-62
2022/07/03 09:51:17;;;;;;;0.95;0.70;;;;;;;;;;5035135;28;20383;-60
2022/07/03 09:53:46;;;;;;;0.70;0.70;;;;;;;;;;5038984;28;20513;-61
2022/07/03 09:56:12;;;;;;;0.63;0.63;;;;;;;;;;5032301;28;20042;-61
2022/07/03 09:58:38;;;;;;;0.57;0.57;;;;;;;;;;5029637;28;20045;-61
2022/07/03 10:01:22;;;;;;;0.70;0.70;;;;;;;;;;5012458;28;20470;-61
2022/07/03 10:03:48;;;;;;;0.80;0.80;;;;;;;;;;5032556;28;20053;-61
2022/07/03 10:06:15;;;;;;;1.52;0.60;;;;;;;;;;5031513;28;20049;-61
2022/07/03 10:08:43;;;;;;;0.77;0.77;;;;;;;;;;5029166;28;20045;-62
2022/07/03 10:11:10;;;;;;;0.60;0.60;;;;;;;;;;5028961;28;20067;-62
2022/07/03 10:13:39;;;;;;;0.60;0.60;;;;;;;;;;5029208;28;20107;-62
2022/07/03 10:16:06;;;;;;;0.50;0.50;;;;;;;;;;5030935;28;20053;-61
2022/07/03 10:18:35;;;;;;;0.73;0.68;;;;;;;;;;5029294;28;20091;-62
2022/07/03 10:21:02;;;;;;;1.17;0.75;;;;;;;;;;5035051;28;20076;-60
2022/07/03 10:23:28;;;;;;;0.85;0.80;;;;;;;;;;5036912;28;20050;-61
2022/07/03 10:25:54;;;;;;;0.65;0.65;;;;;;;;;;5037515;28;20485;-62
2022/07/03 10:28:20;;;;;;;0.57;0.57;;;;;;;;;;5031695;28;20060;-61
2022/07/03 10:30:47;;;;;;;0.60;0.60;;;;;;;;;;5041611;28;20045;-61
2022/07/03 10:33:14;;;;;;;0.82;0.70;;;;;;;;;;5051484;28;20060;-61
2022/07/03 10:35:42;;;;;;;0.63;0.43;;;;;;;;;;5049887;28;20106;-61
2022/07/03 10:38:11;;;;;;;0.63;0.63;;;;;;;;;;5057094;28;20053;-61
2022/07/03 10:46:29;;;;;;;0.50;0.50;;;;;;;;;;5073673;28;20056;-61
2022/07/03 10:49:21;;;;;;;1.15;0.95;;;;;;;;;;5073547;28;20067;-61
2022/07/03 10:51:50;;;;;;;0.63;0.50;;;;;;;;;;5068570;28;20637;-61
2022/07/03 10:54:17;;;;;;;0.68;0.60;;;;;;;;;;5073572;28;20066;-61
2022/07/03 10:57:01;;;;;;;0.73;0.65;;;;;;;;;;5073906;28;20087;-61
2022/07/03 10:59:45;;;;;;;1.00;0.88;;;;;;;;;;5056072;28;20066;-61
2022/07/03 11:02:18;;;;;;;0.90;0.60;;;;;;;;;;5072454;28;20049;-61
2022/07/03 11:04:59;;;;;;;0.85;0.80;;;;;;;;;;5062122;28;20045;-61
2022/07/03 11:07:36;;;;;;;0.60;0.60;;;;;;;;;;5040291;28;20102;-62
2022/07/03 11:10:12;;;;;;;1.50;0.77;;;;;;;;;;5043811;28;20049;-61
2022/07/03 11:12:57;;;;;;;1.85;0.90;;;;;;;;;;5017000;28;20408;-61
2022/07/03 11:15:30;;;;;;;3.63;0.80;;;;;;;;;;5054424;28;20096;-61
2022/07/03 11:18:14;;;;;;;1.40;0.90;;;;;;;;;;5061440;28;20056;-61
2022/07/03 11:20:40;;;;;;;2.17;1.13;;;;;;;;;;5033090;28;20049;-62
2022/07/03 11:23:15;;;;;;;1.35;1.05;;;;;;;;;;5049449;28;20048;-60
2022/07/03 11:25:51;;;;;;;1.20;0.75;;;;;;;;;;5053587;28;20569;-61
2022/07/03 11:28:33;;;;;;;1.95;0.77;;;;;;;;;;5044657;28;20052;-61
2022/07/03 11:31:13;;;;;;;2.42;1.15;;;;;;;;;;5037406;28;20049;-61
2022/07/03 11:33:48;;;;;;;2.25;1.40;;;;;;;;;;5043801;28;20048;-62
2022/07/03 11:36:17;;;;;;;3.17;0.90;;;;;;;;;;5040016;28;20490;-61
2022/07/03 11:38:44;;;;;;;1.45;1.10;;;;;;;;;;5051431;28;20486;-61
2022/07/03 11:41:11;;;;;;;1.27;1.00;;;;;;;;;;5052286;28;20040;-59
2022/07/03 11:43:38;;;;;;;2.28;1.10;;;;;;;;;;5052989;28;20111;-61
2022/07/03 11:46:05;;;;;;;2.83;1.10;;;;;;;;;;5052715;28;20412;-60
2022/07/03 11:48:31;;;;;;;2.15;0.73;;;;;;;;;;5052630;28;20052;-61
2022/07/03 11:51:01;;;;;;;2.95;1.20;;;;;;;;;;5051996;28;20048;-60
2022/07/03 11:53:34;;;;;;;2.33;0.95;;;;;;;;;;5051992;28;20051;-61
2022/07/03 11:56:00;;;;;;;2.53;0.95;;;;;;;;;;5037213;28;20041;-61
2022/07/03 11:58:41;;;;;;;0.90;0.90;;;;;;;;;;5035758;28;20094;-61
2022/07/03 12:01:08;;;;;;;3.38;1.45;;;;;;;;;;5052943;28;20091;-61
2022/07/03 12:03:34;;;;;;;2.20;0.90;;;;;;;;;;5052596;28;20049;-61
2022/07/03 12:06:00;;;;;;;1.42;0.73;;;;;;;;;;5051364;28;20099;-60
2022/07/03 12:08:31;;;;;;;0.93;0.70;;;;;;;;;;5048360;28;20087;-61
2022/07/03 12:10:58;;;;;;;2.05;0.88;;;;;;;;;;5048516;28;20060;-60
2022/07/03 12:13:25;;;;;;;1.77;0.90;;;;;;;;;;5024392;28;20048;-61
2022/07/03 12:15:51;;;;;;;0.70;0.70;;;;;;;;;;5032750;28;20075;-60
2022/07/03 12:18:17;;;;;;;2.92;1.15;;;;;;;;;;5032265;28;20037;-60
2022/07/03 12:20:43;;;;;;;1.65;1.00;;;;;;;;;;5032131;28;20131;-61
2022/07/03 12:23:10;;;;;;;1.15;0.90;;;;;;;;;;5049703;28;20056;-61
2022/07/03 12:25:43;;;;;;;1.50;0.80;;;;;;;;;;5051303;28;20055;-61
2022/07/03 12:28:10;;;;;;;1.42;0.88;;;;;;;;;;5052579;28;20080;-61
2022/07/03 12:30:37;;;;;;;0.88;0.60;;;;;;;;;;5051903;28;20135;-61
2022/07/03 12:33:03;;;;;;;2.35;0.90;;;;;;;;;;5051368;28;20497;-60
2022/07/03 12:35:29;;;;;;;0.70;0.63;;;;;;;;;;5050111;28;20135;-61
2022/07/03 12:37:56;;;;;;;0.60;0.60;;;;;;;;;;5051602;28;20061;-61
2022/07/03 12:40:22;;;;;;;3.22;1.00;;;;;;;;;;5033073;28;20103;-61
2022/07/03 12:42:49;;;;;;;0.77;0.77;;;;;;;;;;5032451;28;20071;-60
2022/07/03 12:45:16;;;;;;;1.88;0.70;;;;;;;;;;5031898;28;20091;-60
2022/07/03 12:47:42;;;;;;;0.70;0.68;;;;;;;;;;5031962;28;20051;-61
2022/07/03 12:50:09;;;;;;;0.70;0.70;;;;;;;;;;5031840;28;20107;-61
2022/07/03 12:52:49;;;;;;;1.08;0.77;;;;;;;;;;5042132;28;20076;-61
2022/07/03 12:55:25;;;;;;;1.02;0.73;;;;;;;;;;5043052;28;20057;-60
2022/07/03 13:00:54;;;;;;;0.90;0.82;;;;;;;;;;5051591;28;20537;-61
2022/07/03 13:03:30;;;;;;;1.55;0.70;;;;;;;;;;5051147;28;20071;-60
2022/07/03 13:05:57;;;;;;;2.05;0.93;;;;;;;;;;5050431;28;20072;-60
2022/07/03 13:08:23;;;;;;;0.70;0.68;;;;;;;;;;5051079;28;20441;-60
2022/07/03 13:10:57;;;;;;;0.80;0.80;;;;;;;;;;5040508;28;20053;-61
2022/07/03 13:13:23;;;;;;;1.23;0.90;;;;;;;;;;5035769;28;20095;-61
2022/07/03 13:15:49;;;;;;;2.03;1.15;;;;;;;;;;5036396;28;20721;-61
2022/07/03 13:18:15;;;;;;;0.70;0.70;;;;;;;;;;5034723;28;20045;-61
2022/07/03 13:20:41;;;;;;;0.85;0.73;;;;;;;;;;5045857;28;20085;-61
2022/07/03 13:23:07;;;;;;;0.73;0.70;;;;;;;;;;5033394;28;20049;-61
2022/07/03 13:25:35;;;;;;;0.85;0.70;;;;;;;;;;5036017;28;20054;-61
2022/07/03 13:28:09;;;;;;;1.15;0.90;;;;;;;;;;5040686;28;20100;-61
2022/07/03 13:30:35;;;;;;;0.80;0.80;;;;;;;;;;5013506;28;20697;-61
2022/07/03 13:33:01;;;;;;;2.35;1.17;;;;;;;;;;5033392;28;20494;-61
2022/07/03 13:35:28;;;;;;;1.42;0.80;;;;;;;;;;5043140;28;20045;-61
2022/07/03 13:37:54;;;;;;;0.98;0.82;;;;;;;;;;5047699;28;20084;-61
2022/07/03 13:40:21;;;;;;;1.17;0.70;;;;;;;;;;5070295;28;20087;-60
2022/07/03 13:42:47;;;;;;;1.02;0.80;;;;;;;;;;5044520;28;20056;-61
2022/07/03 13:45:13;;;;;;;0.85;0.70;;;;;;;;;;5033339;28;20144;-61
2022/07/03 13:47:39;;;;;;;1.30;0.73;;;;;;;;;;5029765;28;20045;-61
2022/07/03 13:50:05;;;;;;;1.75;1.05;;;;;;;;;;5035302;28;20056;-60
2022/07/03 13:52:32;;;;;;;1.55;1.00;;;;;;;;;;5032607;28;20049;-61
2022/07/03 13:54:58;;;;;;;0.70;0.68;;;;;;;;;;5042730;28;20131;-61
2022/07/03 13:57:24;;;;;;;8.75;1.55;;;;;;;;;;5031560;28;20044;-61
2022/07/03 13:59:50;;;;;;;2.75;1.20;;;;;;;;;;5034182;28;20050;-60
2022/07/03 14:02:16;;;;;;;2.47;0.90;;;;;;;;;;5028251;28;20041;-61
2022/07/03 14:04:42;;;;;;;1.25;0.70;;;;;;;;;;5018791;28;20065;-60
2022/07/03 14:07:08;;;;;;;0.80;0.70;;;;;;;;;;5057267;28;20127;-61
2022/07/03 14:09:35;;;;;;;1.67;0.80;;;;;;;;;;5042179;28;20045;-60
2022/07/03 14:12:01;;;;;;;2.63;0.98;;;;;;;;;;5030846;28;20048;-61
2022/07/03 14:14:27;;;;;;;0.60;0.60;;;;;;;;;;5044629;28;20047;-61
2022/07/03 14:16:53;;;;;;;1.63;1.02;;;;;;;;;;5070258;28;20041;-61
2022/07/03 14:19:19;;;;;;;1.45;0.85;;;;;;;;;;5069972;28;20032;-61
2022/07/03 14:21:45;;;;;;;4.63;1.20;;;;;;;;;;5052412;28;20144;-61
2022/07/03 14:24:11;;;;;;;1.60;0.80;;;;;;;;;;5034327;28;20052;-61
2022/07/03 14:34:52;;;;;;;3.28;1.00;;;;;;;;;;5046705;28;20106;-60
2022/07/03 14:37:18;;;;;;;1.63;0.75;;;;;;;;;;5068840;28;20541;-60
2022/07/03 14:39:51;;;;;;;3.78;1.35;;;;;;;;;;5069440;28;20048;-60
2022/07/03 14:42:17;;;;;;;1.98;0.80;;;;;;;;;;5070267;28;20040;-60
2022/07/03 14:44:44;;;;;;;2.63;0.80;;;;;;;;;;5057715;28;20057;-61
2022/07/03 14:47:10;;;;;;;1.63;0.80;;;;;;;;;;5038550;28;20059;-61
2022/07/03 14:49:37;;;;;;;1.00;0.80;;;;;;;;;;5063677;28;20084;-60
2022/07/03 14:52:04;;;;;;;2.17;0.98;;;;;;;;;;5040588;28;20494;-61
2022/07/03 14:54:36;;;;;;;1.52;0.60;;;;;;;;;;5041137;28;20048;-61
2022/07/03 14:57:06;;;;;;;1.63;0.80;;;;;;;;;;5059444;28;20132;-61
2022/07/03 14:59:45;;;;;;;2.05;1.10;;;;;;;;;;5069730;28;20128;-61
2022/07/03 15:02:19;;;;;;;1.95;0.85;;;;;;;;;;5036501;28;20052;-60
2022/07/03 15:04:45;;;;;;;1.55;0.80;;;;;;;;;;5059125;28;20137;-61
2022/07/03 15:07:14;;;;;;;2.92;0.82;;;;;;;;;;5068097;28;20114;-61
2022/07/03 15:09:47;;;;;;;1.90;0.77;;;;;;;;;;5066552;28;20071;-61
2022/07/03 15:12:28;;;;;;;3.05;1.13;;;;;;;;;;5049090;28;20045;-60